Time;durP1;ratioP1;P1;durP2;ratioP2;P2;SDS_P1;SDS_P2;PMS_P1;PMS_P2;Temp;Humidity;BMP_temperature;BMP_pressure;BME280_temperature;BME280_humidity;BME280_pressure;Samples;Min_cycle;Max_cycle;Signal;HPM_P1;HPM_P2
2022/07/13 00:01:59;;;;;;;2.05;1.40;;;;;;;19.55;59.72;99494.16;5029929;28;20529;-80
2022/07/13 00:04:25;;;;;;;1.52;1.42;;;;;;;19.58;59.55;99479.25;5033130;28;20026;-80
2022/07/13 00:06:51;;;;;;;1.42;1.38;;;;;;;19.58;59.24;99499.00;5039099;28;20529;-80
2022/07/13 00:09:16;;;;;;;2.55;1.70;;;;;;;18.97;63.25;99479.97;5037525;28;20486;-80
2022/07/13 00:11:41;;;;;;;1.60;1.50;;;;;;;18.70;63.69;99487.81;5022154;28;20048;-80
2022/07/13 00:14:07;;;;;;;1.42;1.27;;;;;;;19.04;61.08;99485.84;5036731;28;20021;-80
2022/07/13 00:16:32;;;;;;;3.03;1.63;;;;;;;19.35;59.92;99473.56;5036652;28;20036;-80
2022/07/13 00:18:58;;;;;;;3.50;1.75;;;;;;;19.44;59.38;99452.06;5036880;28;20061;-80
2022/07/13 00:21:24;;;;;;;2.47;1.73;;;;;;;19.56;59.28;99462.47;5037570;28;20033;-80
2022/07/13 00:23:49;;;;;;;1.42;1.33;;;;;;;19.58;59.66;99460.28;5019257;28;20549;-80
2022/07/13 00:26:14;;;;;;;2.90;1.50;;;;;;;19.65;59.28;99474.28;5019464;28;20408;-80
2022/07/13 00:28:40;;;;;;;1.48;1.38;;;;;;;19.66;59.31;99468.56;5031217;28;20175;-80
2022/07/13 00:31:05;;;;;;;3.05;1.50;;;;;;;19.45;60.05;99464.53;4996314;28;20041;-80
2022/07/13 00:33:31;;;;;;;2.13;1.55;;;;;;;19.20;60.88;99468.31;5034121;28;20171;-80
2022/07/13 00:35:56;;;;;;;2.13;2.00;;;;;;;18.75;64.04;99466.13;5033349;28;20029;-80
2022/07/13 00:38:22;;;;;;;2.13;1.80;;;;;;;18.65;65.66;99474.38;5016944;28;20030;-80
2022/07/13 00:40:47;;;;;;;1.77;1.67;;;;;;;18.51;66.62;99462.59;5038903;28;20111;-80
2022/07/13 00:43:12;;;;;;;3.35;1.95;;;;;;;18.25;67.09;99451.19;5003909;28;20029;-80
2022/07/13 00:45:38;;;;;;;3.08;2.10;;;;;;;18.18;67.84;99457.97;5029734;28;20108;-80
2022/07/13 00:48:05;;;;;;;4.45;1.58;;;;;;;18.17;66.41;99449.09;5036269;28;20052;-80
2022/07/13 00:50:30;;;;;;;1.98;1.88;;;;;;;18.10;67.33;99445.09;5034727;28;20370;-80
2022/07/13 00:52:56;;;;;;;1.75;1.65;;;;;;;18.22;66.83;99448.22;5019759;28;20094;-80
2022/07/13 00:55:21;;;;;;;5.38;1.58;;;;;;;18.16;67.47;99450.16;5034821;28;20118;-80
2022/07/13 00:57:47;;;;;;;1.70;1.60;;;;;;;18.59;63.15;99416.81;5038606;28;20029;-80
2022/07/13 01:00:14;;;;;;;1.30;1.25;;;;;;;18.88;61.77;99419.47;5016284;28;20037;-80
2022/07/13 01:02:42;;;;;;;1.65;1.55;;;;;;;19.42;60.42;99430.72;5037034;28;20033;-80
2022/07/13 01:05:10;;;;;;;1.75;1.65;;;;;;;18.95;64.04;99414.53;5032671;28;20033;-80
2022/07/13 01:07:35;;;;;;;2.03;1.92;;;;;;;18.44;67.70;99422.38;5033060;28;20033;-80
2022/07/13 01:10:05;;;;;;;1.73;1.60;;;;;;;18.19;66.55;99400.16;5033340;28;20041;-80
2022/07/13 01:12:31;;;;;;;4.40;2.15;;;;;;;17.96;68.79;99418.72;5011682;28;20095;-79
2022/07/13 01:14:58;;;;;;;3.25;2.03;;;;;;;17.83;68.91;99413.16;5044377;28;20056;-80
2022/07/13 01:17:25;;;;;;;4.45;2.30;;;;;;;17.68;69.52;99395.19;5013551;28;20033;-79
2022/07/13 01:19:50;;;;;;;2.75;1.70;;;;;;;17.68;70.25;99405.97;5028322;28;20478;-79
2022/07/13 01:22:20;;;;;;;1.75;1.60;;;;;;;18.18;66.09;99398.53;5014600;28;20097;-80
2022/07/13 01:24:47;;;;;;;2.83;1.63;;;;;;;18.47;64.18;99394.78;5026638;28;20037;-80
2022/07/13 01:27:13;;;;;;;1.90;1.80;;;;;;;18.81;64.39;99399.25;5028378;28;20068;-80
2022/07/13 01:29:39;;;;;;;2.00;1.80;;;;;;;18.77;62.77;99412.56;5010485;28;20493;-80
2022/07/13 01:32:04;;;;;;;1.42;1.33;;;;;;;19.17;61.17;99401.25;5026119;28;20436;-80
2022/07/13 01:34:30;;;;;;;1.80;1.70;;;;;;;19.08;63.62;99426.53;5027154;28;20109;-80
2022/07/13 01:36:55;;;;;;;1.40;1.30;;;;;;;18.98;62.34;99403.09;5028985;28;20034;-79
2022/07/13 01:39:21;;;;;;;1.80;1.70;;;;;;;19.42;61.05;99403.63;5009556;28;20148;-80
2022/07/13 01:41:46;;;;;;;1.75;1.65;;;;;;;19.41;60.92;99396.63;5026838;28;20398;-80
2022/07/13 01:44:14;;;;;;;2.55;1.73;;;;;;;19.51;60.32;99403.78;5027832;28;20041;-80
2022/07/13 01:46:39;;;;;;;1.80;1.70;;;;;;;19.44;60.44;99390.59;5026790;28;20557;-80
2022/07/13 01:49:05;;;;;;;2.25;1.50;;;;;;;19.51;60.48;99395.66;5012637;28;20116;-79
2022/07/13 01:51:30;;;;;;;1.40;1.30;;;;;;;19.42;60.93;99392.81;5011053;28;20074;-80
2022/07/13 01:53:56;;;;;;;1.75;1.65;;;;;;;19.46;61.09;99387.63;5023052;28;20067;-79
2022/07/13 01:56:21;;;;;;;1.65;1.52;;;;;;;19.40;60.75;99378.75;5026094;28;20128;-80
2022/07/13 01:58:47;;;;;;;1.92;1.83;;;;;;;19.43;60.67;99370.06;5022095;28;20045;-80
2022/07/13 02:01:12;;;;;;;4.40;1.70;;;;;;;19.23;62.51;99356.78;5025563;28;20044;-80
2022/07/13 02:03:38;;;;;;;1.83;1.70;;;;;;;18.58;66.86;99377.34;5010513;28;20045;-80
2022/07/13 02:06:05;;;;;;;1.63;1.52;;;;;;;18.40;65.80;99358.31;5032170;28;20029;-80
2022/07/13 02:08:30;;;;;;;1.88;1.75;;;;;;;18.96;62.74;99364.72;5010575;28;20481;-80
2022/07/13 02:10:56;;;;;;;1.30;1.27;;;;;;;18.41;66.41;99346.44;5008818;28;20068;-80
2022/07/13 02:13:21;;;;;;;1.77;1.42;;;;;;;18.20;67.94;99372.03;5021880;28;20041;-80
2022/07/13 02:15:47;;;;;;;1.63;1.52;;;;;;;18.22;67.48;99365.25;5020668;28;20257;-80
2022/07/13 02:18:13;;;;;;;2.13;1.63;;;;;;;18.57;64.34;99362.22;5019608;28;20041;-80
2022/07/13 02:20:39;;;;;;;3.28;1.92;;;;;;;18.91;62.98;99343.16;5023498;28;20040;-80
2022/07/13 02:23:05;;;;;;;2.13;1.83;;;;;;;19.20;61.61;99357.34;5024471;28;20065;-80
2022/07/13 02:25:32;;;;;;;1.40;1.40;;;;;;;19.38;61.17;99347.66;5023538;28;20491;-80
2022/07/13 02:27:58;;;;;;;1.70;1.60;;;;;;;19.29;60.92;99343.97;5021610;28;20374;-80
2022/07/13 02:30:23;;;;;;;1.92;1.70;;;;;;;19.50;60.84;99361.56;5021083;28;20140;-80
2022/07/13 02:32:49;;;;;;;1.50;1.40;;;;;;;19.64;60.33;99361.59;5012361;28;20551;-80
2022/07/13 02:35:14;;;;;;;2.22;1.40;;;;;;;19.47;60.60;99358.63;5029702;28;20024;-80
2022/07/13 02:37:40;;;;;;;1.75;1.65;;;;;;;19.21;63.00;99364.38;5017124;28;20041;-80
2022/07/13 02:40:07;;;;;;;2.65;2.20;;;;;;;18.63;65.77;99358.34;5037777;28;20030;-80
2022/07/13 02:42:33;;;;;;;1.95;1.85;;;;;;;18.23;67.85;99352.56;5034639;28;20317;-80
2022/07/13 02:44:58;;;;;;;1.80;1.70;;;;;;;17.78;69.86;99342.97;5028361;28;20025;-80
2022/07/13 02:47:24;;;;;;;5.72;1.92;;;;;;;17.51;71.34;99353.47;5009332;28;20037;-80
2022/07/13 02:49:50;;;;;;;4.13;2.15;;;;;;;17.69;70.48;99361.66;5011536;28;20034;-80
2022/07/13 02:52:16;;;;;;;1.50;1.40;;;;;;;18.14;66.21;99351.56;5031251;28;20026;-80
2022/07/13 02:54:41;;;;;;;3.08;1.80;;;;;;;17.99;68.49;99352.53;5014660;28;20504;-80
2022/07/13 02:57:07;;;;;;;1.95;1.85;;;;;;;17.85;69.36;99346.16;5029270;28;20021;-79
2022/07/13 02:59:33;;;;;;;2.40;2.20;;;;;;;17.98;69.02;99365.22;5024855;28;20041;-79
2022/07/13 03:01:59;;;;;;;2.25;1.60;;;;;;;18.18;66.23;99369.63;5025695;28;20029;-80
2022/07/13 03:04:25;;;;;;;1.73;1.55;;;;;;;18.17;67.09;99372.63;5033261;28;20473;-80
2022/07/13 03:06:51;;;;;;;2.63;2.20;;;;;;;18.14;69.43;99368.59;5029644;28;20029;-80
2022/07/13 03:09:16;;;;;;;5.28;2.58;;;;;;;18.38;67.38;99376.72;5027560;28;20032;-80
2022/07/13 03:11:42;;;;;;;2.22;1.85;;;;;;;18.26;68.57;99382.50;5011518;28;20045;-80
2022/07/13 03:14:07;;;;;;;2.40;1.90;;;;;;;18.20;66.68;99370.16;5029947;28;20021;-80
2022/07/13 03:16:34;;;;;;;1.70;1.60;;;;;;;18.71;63.45;99389.38;5009511;28;20463;-80
2022/07/13 03:19:00;;;;;;;3.85;2.00;;;;;;;18.38;67.18;99390.25;5028650;28;20034;-80
2022/07/13 03:21:25;;;;;;;1.60;1.50;;;;;;;18.79;62.72;99383.31;5024805;28;20404;-79
2022/07/13 03:23:51;;;;;;;1.88;1.50;;;;;;;19.09;61.97;99382.94;5011156;28;20041;-79
2022/07/13 03:26:16;;;;;;;2.40;1.60;;;;;;;19.04;61.44;99364.09;5028587;28;20043;-79
2022/07/13 03:28:41;;;;;;;1.90;1.80;;;;;;;18.84;63.74;99375.16;5011634;28;20048;-80
2022/07/13 03:31:07;;;;;;;1.67;1.58;;;;;;;18.49;67.17;99379.06;5006954;28;20132;-80
2022/07/13 03:33:32;;;;;;;2.63;1.60;;;;;;;18.89;62.87;99383.22;5027301;28;20040;-80
2022/07/13 03:35:58;;;;;;;1.40;1.30;;;;;;;18.47;66.47;99394.78;5011119;28;20048;-80
2022/07/13 03:38:23;;;;;;;2.10;2.00;;;;;;;18.74;66.50;99394.19;5031902;28;20030;-80
2022/07/13 03:40:49;;;;;;;1.52;1.42;;;;;;;18.67;63.75;99380.22;5015633;28;21435;-80
2022/07/13 03:43:14;;;;;;;1.58;1.48;;;;;;;19.08;62.12;99380.53;5034327;28;20652;-80
2022/07/13 03:45:40;;;;;;;2.42;1.88;;;;;;;18.76;66.42;99386.63;5028368;28;20469;-80
2022/07/13 03:48:05;;;;;;;1.70;1.60;;;;;;;18.42;67.45;99377.75;5031992;28;20052;-80
2022/07/13 03:50:31;;;;;;;1.73;1.63;;;;;;;18.84;62.90;99340.00;5028672;28;20036;-80
2022/07/13 03:52:56;;;;;;;2.55;2.35;;;;;;;18.33;69.30;99357.84;5030452;28;20045;-80
2022/07/13 03:55:22;;;;;;;1.73;1.63;;;;;;;18.95;62.69;99355.00;5013185;28;20025;-80
2022/07/13 03:57:47;;;;;;;2.92;1.60;;;;;;;18.91;63.27;99364.78;5027933;28;20095;-80
2022/07/13 04:00:13;;;;;;;1.58;1.48;;;;;;;18.78;63.85;99362.78;5028956;28;20030;-80
2022/07/13 04:02:38;;;;;;;1.67;1.58;;;;;;;18.93;62.95;99340.97;5022345;28;20064;-80
2022/07/13 04:05:04;;;;;;;1.65;1.55;;;;;;;18.72;64.07;99334.19;5010272;28;20386;-79
2022/07/13 04:07:30;;;;;;;2.03;1.88;;;;;;;18.58;64.77;99366.53;5031938;28;20041;-79
2022/07/13 04:09:55;;;;;;;3.67;2.15;;;;;;;18.69;65.54;99351.81;5011922;28;20525;-80
2022/07/13 04:12:21;;;;;;;3.05;2.85;;;;;;;18.25;69.82;99362.00;5008641;28;20033;-79
2022/07/13 04:14:48;;;;;;;3.42;2.90;;;;;;;18.15;69.96;99336.97;5031632;28;20037;-79
2022/07/13 04:17:14;;;;;;;6.28;2.80;;;;;;;17.96;70.86;99340.38;5016006;28;20025;-79
2022/07/13 04:19:39;;;;;;;2.50;2.30;;;;;;;17.56;72.07;99335.31;5014450;28;20126;-79
2022/07/13 04:22:04;;;;;;;3.35;2.10;;;;;;;17.19;73.38;99345.78;5012176;28;20485;-79
2022/07/13 04:24:30;;;;;;;3.08;2.80;;;;;;;17.02;73.97;99342.66;5007105;28;22010;-79
2022/07/13 04:26:55;;;;;;;5.32;3.10;;;;;;;16.97;73.81;99343.50;5027184;28;20025;-79
2022/07/13 04:29:20;;;;;;;4.75;2.60;;;;;;;17.14;73.21;99340.44;5017171;28;20417;-79
2022/07/13 04:31:46;;;;;;;3.55;2.95;;;;;;;17.08;73.59;99336.97;5026256;28;20022;-79
2022/07/13 04:34:11;;;;;;;2.80;2.55;;;;;;;16.94;73.79;99351.34;5004549;28;20018;-79
2022/07/13 04:36:37;;;;;;;5.10;2.92;;;;;;;17.13;73.31;99352.31;5008323;28;20033;-79
2022/07/13 04:39:03;;;;;;;3.42;2.78;;;;;;;16.86;74.79;99338.44;5011203;28;20049;-79
2022/07/13 04:41:28;;;;;;;6.85;3.17;;;;;;;17.31;72.97;99346.28;5026204;28;20060;-79
2022/07/13 04:43:54;;;;;;;3.95;2.28;;;;;;;17.73;69.46;99337.63;5019343;28;20104;-79
2022/07/13 04:46:19;;;;;;;2.28;2.17;;;;;;;17.63;70.44;99310.69;5007604;28;20038;-79
2022/07/13 04:48:44;;;;;;;3.10;2.45;;;;;;;18.02;68.46;99318.75;5011910;28;20386;-78
2022/07/13 04:51:10;;;;;;;4.50;2.35;;;;;;;18.62;66.51;99335.13;5005381;28;20026;-79
2022/07/13 04:53:35;;;;;;;3.83;2.10;;;;;;;18.93;65.26;99340.16;5022446;28;20180;-79
2022/07/13 04:56:01;;;;;;;3.13;2.38;;;;;;;18.68;68.06;99327.75;5023268;28;20029;-78
2022/07/13 04:58:26;;;;;;;8.73;2.63;;;;;;;18.78;66.11;99326.81;5020892;28;20048;-78
2022/07/13 05:00:52;;;;;;;4.43;2.17;;;;;;;18.62;68.69;99318.09;5022764;28;20151;-78
2022/07/13 05:03:17;;;;;;;3.58;2.40;;;;;;;18.46;69.33;99319.34;5024946;28;20040;-77
2022/07/13 05:05:42;;;;;;;4.93;2.30;;;;;;;18.66;66.81;99322.63;5004483;28;20556;-78
2022/07/13 05:08:08;;;;;;;6.05;2.50;;;;;;;19.01;65.35;99313.25;5021038;28;20099;-78
2022/07/13 05:10:33;;;;;;;3.85;2.28;;;;;;;18.69;67.78;99322.06;5013328;28;20030;-77
2022/07/13 05:12:59;;;;;;;3.75;2.67;;;;;;;18.39;68.47;99308.06;5022445;28;20034;-78
2022/07/13 05:15:24;;;;;;;3.05;2.22;;;;;;;18.59;67.17;99326.78;5019365;28;20036;-78
2022/07/13 05:17:50;;;;;;;4.47;2.38;;;;;;;19.14;64.87;99339.59;4988447;28;20022;-78
2022/07/13 05:20:15;;;;;;;7.28;2.60;;;;;;;18.99;67.33;99331.69;5021797;28;20038;-77
2022/07/13 05:22:41;;;;;;;2.15;1.70;;;;;;;19.16;64.72;99334.69;5023104;28;20037;-78
2022/07/13 05:25:06;;;;;;;3.28;2.55;;;;;;;18.78;67.23;99321.41;5002842;28;20040;-80
2022/07/13 05:27:32;;;;;;;5.32;2.35;;;;;;;19.23;64.76;99327.00;4994590;28;20106;-78
2022/07/13 05:29:57;;;;;;;2.20;2.05;;;;;;;19.61;62.91;99327.81;5022847;28;20037;-78
2022/07/13 05:32:23;;;;;;;2.38;1.90;;;;;;;19.78;62.92;99333.50;5025240;28;20033;-78
2022/07/13 05:34:49;;;;;;;2.33;1.77;;;;;;;19.82;62.32;99320.13;5025964;28;20041;-78
2022/07/13 05:37:15;;;;;;;2.30;2.10;;;;;;;19.67;67.38;99317.69;5023780;28;20025;-78
2022/07/13 05:39:45;;;;;;;5.07;1.77;;;;;;;19.97;62.60;99328.00;5023038;28;20459;-78
2022/07/13 05:42:11;;;;;;;5.18;2.17;;;;;;;19.60;66.70;99280.16;5016422;28;20033;-78
2022/07/13 05:44:37;;;;;;;2.28;1.98;;;;;;;19.81;65.77;99322.03;5020730;28;20505;-80
2022/07/13 05:47:03;;;;;;;3.95;2.03;;;;;;;19.77;67.13;99339.19;5001511;28;20041;-78
2022/07/13 05:49:28;;;;;;;3.17;2.00;;;;;;;19.59;66.67;99331.91;5024394;28;20040;-78
2022/07/13 05:51:54;;;;;;;2.03;1.80;;;;;;;19.68;65.98;99328.22;5004078;28;20462;-78
2022/07/13 05:54:19;;;;;;;4.20;2.00;;;;;;;19.75;66.98;99339.50;5008297;28;20026;-78
2022/07/13 05:56:44;;;;;;;2.13;1.83;;;;;;;20.00;66.07;99316.59;5023517;28;20045;-78
2022/07/13 05:59:10;;;;;;;1.88;1.65;;;;;;;20.04;64.41;99304.03;5010556;28;20108;-78
2022/07/13 06:01:35;;;;;;;2.00;1.90;;;;;;;20.44;62.78;99316.88;5018340;28;20043;-78
2022/07/13 06:04:01;;;;;;;2.47;1.80;;;;;;;20.38;64.09;99317.28;5023138;28;20033;-78
2022/07/13 06:06:26;;;;;;;5.50;1.80;;;;;;;20.32;63.19;99327.41;4989471;28;20041;-78
2022/07/13 06:08:52;;;;;;;9.75;2.10;;;;;;;20.21;65.95;99338.72;5021185;28;20086;-78
2022/07/13 06:11:17;;;;;;;2.28;2.08;;;;;;;20.47;62.91;99324.38;5027626;28;20040;-78
2022/07/13 06:13:42;;;;;;;4.88;2.17;;;;;;;20.72;61.27;99323.88;5017892;28;20041;-78
2022/07/13 06:16:08;;;;;;;4.68;1.77;;;;;;;20.77;61.52;99334.63;5035321;28;20034;-78
2022/07/13 06:18:33;;;;;;;4.38;2.42;;;;;;;20.58;63.36;99306.00;5035153;28;20124;-78
2022/07/13 06:20:59;;;;;;;5.18;2.55;;;;;;;20.58;63.01;99295.97;5032417;28;20033;-78
2022/07/13 06:23:24;;;;;;;2.85;2.00;;;;;;;20.76;63.05;99308.59;5008921;28;20064;-79
2022/07/13 06:25:49;;;;;;;4.00;2.20;;;;;;;20.78;63.31;99306.38;5033338;28;20098;-78
2022/07/13 06:28:15;;;;;;;3.13;2.60;;;;;;;20.63;65.27;99306.72;5008915;28;20026;-78
2022/07/13 06:30:41;;;;;;;2.38;1.80;;;;;;;20.50;63.22;99291.25;5032338;28;20325;-78
2022/07/13 06:33:06;;;;;;;2.25;2.03;;;;;;;20.69;62.77;99294.63;5032730;28;20541;-78
2022/07/13 06:35:32;;;;;;;3.42;1.90;;;;;;;20.89;61.84;99283.34;5016579;28;20029;-78
2022/07/13 06:37:58;;;;;;;4.90;2.10;;;;;;;21.06;61.96;99295.50;5021400;28;20033;-78
2022/07/13 06:40:24;;;;;;;3.60;1.73;;;;;;;21.05;61.82;99289.28;5035066;28;20025;-78
2022/07/13 06:42:49;;;;;;;2.42;1.90;;;;;;;21.17;61.61;99277.88;5035013;28;20071;-78
2022/07/13 06:45:15;;;;;;;4.53;2.05;;;;;;;21.14;61.74;99271.16;5018224;28;20078;-78
2022/07/13 06:47:40;;;;;;;1.95;1.73;;;;;;;21.22;61.59;99278.56;5032581;28;20128;-78
2022/07/13 06:50:07;;;;;;;3.72;2.33;;;;;;;21.08;67.05;99277.00;5031365;28;20033;-78
2022/07/13 06:52:33;;;;;;;4.38;1.92;;;;;;;21.13;63.03;99268.72;5013292;28;20391;-78
2022/07/13 06:54:59;;;;;;;3.28;1.90;;;;;;;21.34;63.39;99280.75;5016646;28;20034;-78
2022/07/13 06:57:24;;;;;;;2.63;1.77;;;;;;;21.47;61.24;99283.38;5023400;28;20045;-78
2022/07/13 06:59:50;;;;;;;3.83;2.10;;;;;;;21.69;60.75;99273.63;5032165;28;20037;-78
2022/07/13 07:02:15;;;;;;;5.40;2.00;;;;;;;21.72;64.05;99290.09;5031745;28;20389;-77
2022/07/13 07:04:40;;;;;;;2.10;1.90;;;;;;;21.82;61.64;99284.41;5029055;28;20033;-78
2022/07/13 07:07:06;;;;;;;3.00;2.10;;;;;;;21.94;60.92;99289.31;5029520;28;20214;-78
2022/07/13 07:09:32;;;;;;;2.97;1.80;;;;;;;22.02;62.46;99286.63;5031278;28;20036;-78
2022/07/13 07:11:58;;;;;;;4.13;1.90;;;;;;;22.14;63.67;99275.97;5013239;28;20026;-78
2022/07/13 07:14:23;;;;;;;4.97;2.13;;;;;;;22.42;59.37;99267.59;5031536;28;20492;-78
2022/07/13 07:16:49;;;;;;;1.90;1.70;;;;;;;22.42;58.58;99276.56;5028847;28;20411;-78
2022/07/13 07:19:14;;;;;;;2.20;1.67;;;;;;;22.46;57.30;99268.56;5024834;28;20065;-78
2022/07/13 07:21:40;;;;;;;2.22;1.67;;;;;;;22.64;57.12;99278.41;5027126;28;20049;-78
2022/07/13 07:24:05;;;;;;;2.75;1.63;;;;;;;22.69;56.31;99265.47;4993070;28;20397;-78
2022/07/13 07:26:31;;;;;;;1.50;1.40;;;;;;;22.84;55.48;99250.59;5029071;28;20029;-78
2022/07/13 07:28:57;;;;;;;1.83;1.73;;;;;;;22.87;55.52;99255.38;5012926;28;20037;-78
2022/07/13 07:31:23;;;;;;;4.28;1.77;;;;;;;23.01;55.80;99253.31;5027397;28;20084;-78
2022/07/13 07:33:49;;;;;;;2.03;1.40;;;;;;;23.11;56.18;99242.09;5026928;28;20128;-78
2022/07/13 07:36:16;;;;;;;1.73;1.63;;;;;;;23.29;56.67;99257.31;5030554;28;20057;-78
2022/07/13 07:38:42;;;;;;;1.55;1.45;;;;;;;23.34;55.50;99246.28;5026538;28;20079;-78
2022/07/13 07:41:08;;;;;;;2.00;1.80;;;;;;;23.42;56.17;99259.09;5021120;28;20474;-78
2022/07/13 07:43:33;;;;;;;1.98;1.77;;;;;;;23.41;55.84;99246.63;5024448;28;20404;-78
2022/07/13 07:45:59;;;;;;;2.47;1.48;;;;;;;23.53;57.03;99235.03;5025688;28;20040;-78
2022/07/13 07:48:24;;;;;;;1.77;1.60;;;;;;;23.73;54.88;99240.59;5028724;28;20029;-78
2022/07/13 07:50:49;;;;;;;1.40;1.30;;;;;;;23.69;54.44;99225.22;5028381;28;20034;-78
2022/07/13 07:53:15;;;;;;;2.75;1.55;;;;;;;23.71;54.12;99206.63;5027305;28;20028;-78
2022/07/13 07:55:40;;;;;;;2.67;1.30;;;;;;;23.73;53.68;99216.06;5007179;28;20040;-78
2022/07/13 07:58:08;;;;;;;1.35;1.33;;;;;;;23.80;53.52;99221.03;5027160;28;20032;-78
2022/07/13 08:00:33;;;;;;;3.60;1.83;;;;;;;23.76;53.91;99209.19;5020644;28;20037;-78
2022/07/13 08:03:02;;;;;;;1.67;1.30;;;;;;;23.95;53.14;99215.03;5026406;28;20389;-78
2022/07/13 08:05:29;;;;;;;1.20;1.20;;;;;;;23.99;53.55;99217.88;5009792;28;20052;-78
2022/07/13 08:07:54;;;;;;;1.80;1.30;;;;;;;23.87;53.56;99209.63;5029458;28;20025;-78
2022/07/13 08:10:20;;;;;;;1.33;1.23;;;;;;;23.79;53.57;99211.22;5007859;28;20037;-78
2022/07/13 08:12:45;;;;;;;1.30;1.20;;;;;;;23.72;53.03;99219.13;5004131;28;20041;-78
2022/07/13 08:15:10;;;;;;;1.33;1.20;;;;;;;23.69;53.25;99217.03;5011005;28;20041;-78
2022/07/13 08:17:38;;;;;;;3.08;1.40;;;;;;;23.77;53.10;99225.19;5011787;28;20037;-78
2022/07/13 08:20:04;;;;;;;1.63;1.20;;;;;;;23.71;53.71;99212.88;5026226;28;20182;-78
2022/07/13 08:22:29;;;;;;;1.17;1.17;;;;;;;23.91;52.36;99213.28;5028093;28;20121;-78
2022/07/13 08:24:55;;;;;;;1.67;1.58;;;;;;;24.02;52.80;99214.53;5027528;28;20545;-78
2022/07/13 08:27:20;;;;;;;2.78;1.30;;;;;;;24.03;53.01;99211.47;5023668;28;20082;-78
2022/07/13 08:29:46;;;;;;;4.72;1.27;;;;;;;24.14;52.93;99207.28;5028193;28;20040;-78
2022/07/13 08:32:12;;;;;;;1.38;1.27;;;;;;;24.23;52.53;99207.22;5023852;28;20112;-79
2022/07/13 08:40:08;;;;;;;2.28;1.20;;;;;;;24.04;52.56;99195.91;5026849;28;20124;-78
2022/07/13 08:42:38;;;;;;;2.45;1.30;;;;;;;24.20;52.57;99208.69;5026069;28;20111;-78
2022/07/13 08:45:05;;;;;;;2.00;1.50;;;;;;;24.08;52.84;99192.22;5023244;28;20296;-78
2022/07/13 08:47:31;;;;;;;5.50;1.55;;;;;;;24.11;52.62;99207.94;5023253;28;20053;-78
2022/07/13 08:50:07;;;;;;;3.05;1.25;;;;;;;24.13;52.66;99199.41;5023690;28;20068;-78
2022/07/13 08:52:37;;;;;;;1.50;1.40;;;;;;;24.19;53.06;99201.63;5027014;28;20037;-78
2022/07/13 08:55:05;;;;;;;1.42;1.33;;;;;;;24.35;52.71;99199.16;5018245;28;20397;-78
2022/07/13 08:57:32;;;;;;;3.60;1.60;;;;;;;24.51;52.04;99192.75;5024545;28;20049;-78
2022/07/13 08:59:58;;;;;;;2.50;1.50;;;;;;;24.46;51.94;99201.13;5021667;28;20472;-79
2022/07/13 09:02:23;;;;;;;2.33;1.35;;;;;;;24.44;52.42;99197.94;4994432;28;20121;-78
2022/07/13 09:04:49;;;;;;;2.60;1.10;;;;;;;24.37;52.39;99186.78;5020212;28;20075;-78
2022/07/13 09:07:15;;;;;;;6.22;1.65;;;;;;;24.42;52.11;99196.66;5016762;28;20041;-78
2022/07/13 09:09:40;;;;;;;3.53;1.55;;;;;;;24.49;52.63;99196.94;5021774;28;20398;-78
2022/07/13 09:12:11;;;;;;;2.80;1.88;;;;;;;24.54;51.94;99194.03;5004992;28;20041;-78
2022/07/13 09:14:38;;;;;;;1.30;1.30;;;;;;;24.49;51.76;99184.13;5022691;28;20033;-78
2022/07/13 09:17:03;;;;;;;2.03;1.83;;;;;;;24.42;51.50;99172.09;5010581;28;20040;-78
2022/07/13 09:19:38;;;;;;;1.88;1.42;;;;;;;24.64;51.91;99184.66;5025617;28;20034;-78
2022/07/13 09:22:11;;;;;;;2.30;1.80;;;;;;;24.75;50.65;99166.78;5009898;28;20032;-78
2022/07/13 09:24:46;;;;;;;2.00;1.73;;;;;;;24.83;50.93;99166.72;5010220;28;20091;-78
2022/07/13 09:27:13;;;;;;;2.53;1.77;;;;;;;25.15;50.53;99178.78;5020686;28;20029;-79
2022/07/13 09:29:39;;;;;;;2.78;1.55;;;;;;;25.36;49.80;99176.81;5020787;28;20029;-78
2022/07/13 09:32:07;;;;;;;3.42;1.70;;;;;;;25.23;49.70;99159.56;5022948;28;20037;-79
2022/07/13 09:34:50;;;;;;;1.40;1.30;;;;;;;25.13;49.88;99179.13;5019271;28;20119;-78
2022/07/13 09:37:17;;;;;;;1.73;1.60;;;;;;;25.16;48.87;99175.72;5024153;28;20036;-78
2022/07/13 09:40:08;;;;;;;2.78;1.60;;;;;;;25.33;48.12;99173.97;5022101;28;20049;-79
2022/07/13 09:42:41;;;;;;;1.70;1.60;;;;;;;25.26;48.54;99178.03;5021907;28;20501;-78
2022/07/13 09:47:58;;;;;;;1.80;1.70;;;;;;;25.52;48.22;99164.13;5018844;28;20137;-79
2022/07/13 09:50:38;;;;;;;1.55;1.45;;;;;;;25.69;47.64;99160.38;5009612;28;20033;-79
2022/07/13 09:53:23;;;;;;;1.77;1.67;;;;;;;25.91;47.53;99159.94;5022917;28;20532;-79
2022/07/13 09:55:51;;;;;;;2.50;1.67;;;;;;;26.11;48.73;99171.94;5022410;28;20026;-79
2022/07/13 09:58:39;;;;;;;1.73;1.63;;;;;;;25.94;47.11;99159.28;5022412;28;20032;-79
2022/07/13 10:01:04;;;;;;;1.77;1.67;;;;;;;26.02;47.39;99161.09;5022031;28;20189;-79
2022/07/13 10:03:31;;;;;;;2.58;1.73;;;;;;;26.10;47.61;99170.38;5023031;28;20120;-79
2022/07/13 10:05:58;;;;;;;3.28;2.05;;;;;;;25.93;47.80;99168.59;5020336;28;20025;-79
2022/07/13 10:08:24;;;;;;;4.88;2.00;;;;;;;25.96;47.48;99163.28;5020884;28;20296;-79
2022/07/13 10:10:52;;;;;;;2.58;2.13;;;;;;;25.83;47.54;99161.66;5018401;28;20114;-79
2022/07/13 10:13:18;;;;;;;3.33;1.80;;;;;;;25.63;47.89;99145.34;5026934;28;20481;-78
2022/07/13 10:15:47;;;;;;;3.28;2.17;;;;;;;25.86;47.50;99160.19;5022163;28;20033;-79
2022/07/13 10:18:20;;;;;;;2.22;1.95;;;;;;;25.88;47.36;99158.69;5022401;28;20034;-79
2022/07/13 10:20:52;;;;;;;3.83;2.20;;;;;;;25.89;47.67;99154.81;5023333;28;20040;-78
2022/07/13 10:23:50;;;;;;;2.60;1.75;;;;;;;26.07;47.23;99162.81;5022075;28;20037;-78
2022/07/13 10:26:19;;;;;;;4.45;2.08;;;;;;;26.14;47.42;99169.34;4998413;28;20076;-78
2022/07/13 10:29:00;;;;;;;2.20;2.00;;;;;;;25.87;48.25;99156.31;5026921;28;20040;-79
2022/07/13 10:31:27;;;;;;;3.30;2.00;;;;;;;26.10;47.10;99148.47;5021602;28;20461;-79
2022/07/13 10:33:52;;;;;;;4.38;3.33;;;;;;;26.41;47.14;99157.66;5024046;28;20048;-79
2022/07/13 10:36:58;;;;;;;2.45;2.25;;;;;;;26.19;47.49;99174.56;5021551;28;20504;-79
2022/07/13 10:39:29;;;;;;;2.10;1.90;;;;;;;26.13;47.91;99154.06;5022458;28;20136;-78
2022/07/13 10:42:07;;;;;;;2.53;2.20;;;;;;;26.28;48.00;99166.22;5009031;28;20044;-79
2022/07/13 10:44:40;;;;;;;4.25;1.92;;;;;;;26.40;47.63;99152.53;5020103;28;20040;-78
2022/07/13 10:47:08;;;;;;;2.67;2.40;;;;;;;26.47;47.73;99155.50;5019883;28;20018;-79
2022/07/13 10:49:39;;;;;;;2.53;2.33;;;;;;;26.71;47.48;99155.44;5006994;28;20033;-78
2022/07/13 10:52:25;;;;;;;4.82;2.40;;;;;;;26.60;47.73;99157.84;5024099;28;20025;-79
2022/07/13 10:55:03;;;;;;;3.08;2.28;;;;;;;26.48;47.97;99157.09;5022537;28;20033;-79
2022/07/13 10:57:29;;;;;;;2.83;2.10;;;;;;;26.32;48.11;99140.56;5019112;28;20096;-79
2022/07/13 11:00:01;;;;;;;6.93;2.38;;;;;;;26.47;47.51;99136.34;5007453;28;20060;-78
2022/07/13 11:02:47;;;;;;;2.88;2.55;;;;;;;26.43;47.56;99147.16;5022054;28;20124;-79
2022/07/13 11:05:13;;;;;;;2.67;2.45;;;;;;;26.34;48.06;99138.28;5009942;28;20092;-79
2022/07/13 11:07:41;;;;;;;4.18;2.72;;;;;;;26.56;47.56;99124.09;5016600;28;20120;-79
2022/07/13 11:10:24;;;;;;;2.72;2.38;;;;;;;26.89;47.45;99137.59;4991358;28;20037;-79
2022/07/13 11:12:58;;;;;;;3.30;2.50;;;;;;;27.10;47.13;99134.66;5027361;28;20646;-79
2022/07/13 11:15:40;;;;;;;5.50;2.58;;;;;;;27.14;46.82;99122.63;5026020;28;20283;-79
2022/07/13 11:18:21;;;;;;;2.20;2.00;;;;;;;27.71;46.36;99126.88;5027323;28;20616;-79
2022/07/13 11:21:05;;;;;;;3.42;2.55;;;;;;;27.70;46.31;99120.59;5006519;28;20038;-79
2022/07/13 11:26:51;;;;;;;4.45;2.20;;;;;;;27.34;46.38;99112.59;5019429;28;20060;-79
2022/07/13 11:29:34;;;;;;;2.70;2.45;;;;;;;27.32;46.85;99106.66;5024627;28;20136;-79
2022/07/13 11:32:01;;;;;;;3.17;2.40;;;;;;;27.34;46.53;99115.34;5024791;28;20053;-79
2022/07/13 11:34:27;;;;;;;3.75;2.50;;;;;;;27.43;46.48;99119.50;5007449;28;20040;-79
2022/07/13 11:36:55;;;;;;;2.83;2.53;;;;;;;27.48;46.58;99099.25;5007629;28;20637;-79
2022/07/13 11:39:28;;;;;;;2.72;2.53;;;;;;;27.49;46.26;99109.09;5023324;28;20112;-79
2022/07/13 11:41:55;;;;;;;3.40;2.72;;;;;;;27.52;45.76;99111.13;5030315;28;20091;-79
2022/07/13 11:44:24;;;;;;;3.45;2.20;;;;;;;27.58;45.62;99098.75;5030127;28;20033;-79
2022/07/13 11:46:51;;;;;;;3.72;2.28;;;;;;;27.65;45.41;99092.63;5025459;28;20576;-79